sensor_id;sensor_type;location;lat;lon;timestamp;temperature;humidity
71563;DHT22;59391;52.504;13.438;2022-11-15T00:01:47;8.60;70.90
71563;DHT22;59391;52.504;13.438;2022-11-15T00:04:12;8.60;70.80
71563;DHT22;59391;52.504;13.438;2022-11-15T00:06:38;8.60;71.00
71563;DHT22;59391;52.504;13.438;2022-11-15T00:09:04;8.50;71.10
71563;DHT22;59391;52.504;13.438;2022-11-15T00:11:30;8.50;71.10
71563;DHT22;59391;52.504;13.438;2022-11-15T00:13:56;8.50;70.60
71563;DHT22;59391;52.504;13.438;2022-11-15T00:16:24;8.50;70.70
71563;DHT22;59391;52.504;13.438;2022-11-15T00:18:50;8.50;70.80
71563;DHT22;59391;52.504;13.438;2022-11-15T00:21:17;8.50;70.70
71563;DHT22;59391;52.504;13.438;2022-11-15T00:23:43;8.40;70.50
71563;DHT22;59391;52.504;13.438;2022-11-15T00:26:13;8.40;70.80
71563;DHT22;59391;52.504;13.438;2022-11-15T00:28:40;8.40;71.10
71563;DHT22;59391;52.504;13.438;2022-11-15T00:31:10;8.30;71.00
71563;DHT22;59391;52.504;13.438;2022-11-15T00:33:37;8.40;70.90
71563;DHT22;59391;52.504;13.438;2022-11-15T00:36:04;8.30;70.90
71563;DHT22;59391;52.504;13.438;2022-11-15T00:38:34;8.30;71.00
71563;DHT22;59391;52.504;13.438;2022-11-15T00:41:01;8.30;70.90
71563;DHT22;59391;52.504;13.438;2022-11-15T00:43:28;8.30;70.80
71563;DHT22;59391;52.504;13.438;2022-11-15T00:45:54;8.30;70.80
71563;DHT22;59391;52.504;13.438;2022-11-15T00:48:20;8.20;70.90
71563;DHT22;59391;52.504;13.438;2022-11-15T00:50:46;8.20;70.80
71563;DHT22;59391;52.504;13.438;2022-11-15T00:53:11;8.20;70.80
71563;DHT22;59391;52.504;13.438;2022-11-15T00:55:37;8.20;70.70
71563;DHT22;59391;52.504;13.438;2022-11-15T00:58:02;8.10;70.80
71563;DHT22;59391;52.504;13.438;2022-11-15T01:00:28;8.10;70.90
71563;DHT22;59391;52.504;13.438;2022-11-15T01:02:54;8.10;71.10
71563;DHT22;59391;52.504;13.438;2022-11-15T01:05:20;8.00;71.20
71563;DHT22;59391;52.504;13.438;2022-11-15T01:07:46;8.00;71.20
71563;DHT22;59391;52.504;13.438;2022-11-15T01:10:12;8.00;71.30
71563;DHT22;59391;52.504;13.438;2022-11-15T01:12:37;8.00;71.20
71563;DHT22;59391;52.504;13.438;2022-11-15T01:15:04;8.00;71.10
71563;DHT22;59391;52.504;13.438;2022-11-15T01:17:31;7.90;71.20
71563;DHT22;59391;52.504;13.438;2022-11-15T01:19:56;7.90;71.10
71563;DHT22;59391;52.504;13.438;2022-11-15T01:22:22;7.90;71.10
71563;DHT22;59391;52.504;13.438;2022-11-15T01:24:51;7.90;71.00
71563;DHT22;59391;52.504;13.438;2022-11-15T01:27:17;7.90;71.10
71563;DHT22;59391;52.504;13.438;2022-11-15T01:29:43;7.80;71.10
71563;DHT22;59391;52.504;13.438;2022-11-15T01:32:08;7.80;71.10
71563;DHT22;59391;52.504;13.438;2022-11-15T01:34:34;7.80;71.20
71563;DHT22;59391;52.504;13.438;2022-11-15T01:37:00;7.80;71.20
71563;DHT22;59391;52.504;13.438;2022-11-15T01:39:27;7.80;71.30
71563;DHT22;59391;52.504;13.438;2022-11-15T01:41:53;7.70;71.30
71563;DHT22;59391;52.504;13.438;2022-11-15T01:47:03;7.70;71.50
71563;DHT22;59391;52.504;13.438;2022-11-15T01:49:35;7.70;71.40
71563;DHT22;59391;52.504;13.438;2022-11-15T01:52:09;7.70;71.50
71563;DHT22;59391;52.504;13.438;2022-11-15T01:54:42;7.60;71.70
71563;DHT22;59391;52.504;13.438;2022-11-15T01:57:09;7.60;72.00
71563;DHT22;59391;52.504;13.438;2022-11-15T01:59:38;7.60;71.90
71563;DHT22;59391;52.504;13.438;2022-11-15T02:02:07;7.60;71.90
71563;DHT22;59391;52.504;13.438;2022-11-15T02:04:37;7.60;72.00
71563;DHT22;59391;52.504;13.438;2022-11-15T02:07:08;7.60;72.20
71563;DHT22;59391;52.504;13.438;2022-11-15T02:09:37;7.60;72.20
71563;DHT22;59391;52.504;13.438;2022-11-15T02:12:10;7.60;72.10
71563;DHT22;59391;52.504;13.438;2022-11-15T02:14:40;7.60;72.10
71563;DHT22;59391;52.504;13.438;2022-11-15T02:17:21;7.60;72.30
71563;DHT22;59391;52.504;13.438;2022-11-15T02:20:28;7.60;72.40
71563;DHT22;59391;52.504;13.438;2022-11-15T02:32:40;7.60;72.20
71563;DHT22;59391;52.504;13.438;2022-11-15T02:35:29;7.50;72.10
71563;DHT22;59391;52.504;13.438;2022-11-15T02:38:51;7.50;72.10
71563;DHT22;59391;52.504;13.438;2022-11-15T02:41:24;7.50;72.20
71563;DHT22;59391;52.504;13.438;2022-11-15T02:44:02;7.50;72.10
71563;DHT22;59391;52.504;13.438;2022-11-15T02:47:20;7.50;72.20
71563;DHT22;59391;52.504;13.438;2022-11-15T02:49:43;7.50;72.20
71563;DHT22;59391;52.504;13.438;2022-11-15T02:52:24;7.50;72.30
71563;DHT22;59391;52.504;13.438;2022-11-15T02:54:57;7.50;72.30
71563;DHT22;59391;52.504;13.438;2022-11-15T02:57:44;7.50;72.40
71563;DHT22;59391;52.504;13.438;2022-11-15T03:00:18;7.40;72.50
71563;DHT22;59391;52.504;13.438;2022-11-15T03:03:28;7.40;72.50
71563;DHT22;59391;52.504;13.438;2022-11-15T03:06:09;7.40;72.50
71563;DHT22;59391;52.504;13.438;2022-11-15T03:09:05;7.40;72.60
71563;DHT22;59391;52.504;13.438;2022-11-15T03:11:47;7.40;72.60
71563;DHT22;59391;52.504;13.438;2022-11-15T03:14:47;7.40;72.60
71563;DHT22;59391;52.504;13.438;2022-11-15T03:17:28;7.40;72.80
71563;DHT22;59391;52.504;13.438;2022-11-15T03:19:59;7.40;72.70
71563;DHT22;59391;52.504;13.438;2022-11-15T03:22:33;7.40;72.80
71563;DHT22;59391;52.504;13.438;2022-11-15T03:25:09;7.40;72.80
71563;DHT22;59391;52.504;13.438;2022-11-15T03:27:42;7.40;72.90
71563;DHT22;59391;52.504;13.438;2022-11-15T03:30:12;7.40;73.10
71563;DHT22;59391;52.504;13.438;2022-11-15T03:32:47;7.40;73.00
71563;DHT22;59391;52.504;13.438;2022-11-15T03:35:23;7.40;72.90
71563;DHT22;59391;52.504;13.438;2022-11-15T03:40:58;7.40;73.10
71563;DHT22;59391;52.504;13.438;2022-11-15T03:46:12;7.40;73.00
71563;DHT22;59391;52.504;13.438;2022-11-15T03:48:46;7.40;73.10
71563;DHT22;59391;52.504;13.438;2022-11-15T03:51:19;7.40;73.00
71563;DHT22;59391;52.504;13.438;2022-11-15T03:53:46;7.40;73.10
71563;DHT22;59391;52.504;13.438;2022-11-15T03:56:11;7.40;73.10
71563;DHT22;59391;52.504;13.438;2022-11-15T03:58:37;7.40;73.20
71563;DHT22;59391;52.504;13.438;2022-11-15T04:01:03;7.40;73.00
71563;DHT22;59391;52.504;13.438;2022-11-15T04:03:28;7.40;73.00
71563;DHT22;59391;52.504;13.438;2022-11-15T04:05:54;7.50;73.00
71563;DHT22;59391;52.504;13.438;2022-11-15T04:08:19;7.50;72.80
71563;DHT22;59391;52.504;13.438;2022-11-15T04:10:45;7.50;72.80
71563;DHT22;59391;52.504;13.438;2022-11-15T04:13:14;7.50;72.70
71563;DHT22;59391;52.504;13.438;2022-11-15T04:15:39;7.50;72.50
71563;DHT22;59391;52.504;13.438;2022-11-15T04:18:05;7.50;72.50
71563;DHT22;59391;52.504;13.438;2022-11-15T04:20:31;7.50;72.50
71563;DHT22;59391;52.504;13.438;2022-11-15T04:23:21;7.50;72.50
71563;DHT22;59391;52.504;13.438;2022-11-15T04:26:15;7.50;72.60
71563;DHT22;59391;52.504;13.438;2022-11-15T04:28:43;7.50;72.50
71563;DHT22;59391;52.504;13.438;2022-11-15T04:31:28;7.50;72.40
71563;DHT22;59391;52.504;13.438;2022-11-15T04:33:55;7.50;72.40
71563;DHT22;59391;52.504;13.438;2022-11-15T04:36:21;7.50;72.50
71563;DHT22;59391;52.504;13.438;2022-11-15T04:39:06;7.50;72.50
71563;DHT22;59391;52.504;13.438;2022-11-15T04:41:32;7.50;72.30
71563;DHT22;59391;52.504;13.438;2022-11-15T04:43:57;7.50;72.30
71563;DHT22;59391;52.504;13.438;2022-11-15T04:46:23;7.50;72.40
71563;DHT22;59391;52.504;13.438;2022-11-15T04:48:50;7.40;72.40
71563;DHT22;59391;52.504;13.438;2022-11-15T04:51:16;7.50;72.40
71563;DHT22;59391;52.504;13.438;2022-11-15T04:53:42;7.40;72.30
71563;DHT22;59391;52.504;13.438;2022-11-15T04:56:08;7.50;72.40
71563;DHT22;59391;52.504;13.438;2022-11-15T04:58:34;7.50;72.40
71563;DHT22;59391;52.504;13.438;2022-11-15T05:01:08;7.50;72.50
71563;DHT22;59391;52.504;13.438;2022-11-15T05:03:37;7.40;72.50
71563;DHT22;59391;52.504;13.438;2022-11-15T05:06:22;7.50;72.50
71563;DHT22;59391;52.504;13.438;2022-11-15T05:08:51;7.50;72.40
71563;DHT22;59391;52.504;13.438;2022-11-15T05:11:16;7.40;72.40
71563;DHT22;59391;52.504;13.438;2022-11-15T05:13:42;7.50;72.30
71563;DHT22;59391;52.504;13.438;2022-11-15T05:16:08;7.40;72.30
71563;DHT22;59391;52.504;13.438;2022-11-15T05:18:33;7.50;72.20
71563;DHT22;59391;52.504;13.438;2022-11-15T05:21:07;7.50;72.30
71563;DHT22;59391;52.504;13.438;2022-11-15T05:23:35;7.40;72.30
71563;DHT22;59391;52.504;13.438;2022-11-15T05:26:02;7.50;72.20
71563;DHT22;59391;52.504;13.438;2022-11-15T05:28:29;7.50;72.20
71563;DHT22;59391;52.504;13.438;2022-11-15T05:31:08;7.50;72.20
71563;DHT22;59391;52.504;13.438;2022-11-15T05:33:37;7.50;72.20
71563;DHT22;59391;52.504;13.438;2022-11-15T05:38:38;7.40;72.20
71563;DHT22;59391;52.504;13.438;2022-11-15T05:41:05;7.40;72.20
71563;DHT22;59391;52.504;13.438;2022-11-15T05:43:33;7.40;72.20
71563;DHT22;59391;52.504;13.438;2022-11-15T05:46:02;7.40;72.20
71563;DHT22;59391;52.504;13.438;2022-11-15T05:48:29;7.40;72.30
71563;DHT22;59391;52.504;13.438;2022-11-15T05:50:56;7.40;72.40
71563;DHT22;59391;52.504;13.438;2022-11-15T05:53:23;7.40;72.60
71563;DHT22;59391;52.504;13.438;2022-11-15T05:55:51;7.40;72.70
71563;DHT22;59391;52.504;13.438;2022-11-15T05:58:18;7.50;72.60
71563;DHT22;59391;52.504;13.438;2022-11-15T06:00:45;7.50;72.50
71563;DHT22;59391;52.504;13.438;2022-11-15T06:03:11;7.50;72.40
71563;DHT22;59391;52.504;13.438;2022-11-15T06:05:39;7.50;72.30
71563;DHT22;59391;52.504;13.438;2022-11-15T06:08:05;7.50;72.30
71563;DHT22;59391;52.504;13.438;2022-11-15T06:10:32;7.50;72.30
71563;DHT22;59391;52.504;13.438;2022-11-15T06:13:03;7.50;72.40
71563;DHT22;59391;52.504;13.438;2022-11-15T06:15:34;7.50;72.40
71563;DHT22;59391;52.504;13.438;2022-11-15T06:18:00;7.50;72.40
71563;DHT22;59391;52.504;13.438;2022-11-15T06:20:27;7.50;72.50
71563;DHT22;59391;52.504;13.438;2022-11-15T06:23:03;7.50;72.60
71563;DHT22;59391;52.504;13.438;2022-11-15T06:25:30;7.50;72.60
71563;DHT22;59391;52.504;13.438;2022-11-15T06:27:57;7.50;72.60
71563;DHT22;59391;52.504;13.438;2022-11-15T06:30:25;7.50;72.60
71563;DHT22;59391;52.504;13.438;2022-11-15T06:32:59;7.50;72.40
71563;DHT22;59391;52.504;13.438;2022-11-15T06:35:30;7.50;72.30
71563;DHT22;59391;52.504;13.438;2022-11-15T06:38:07;7.60;72.20
71563;DHT22;59391;52.504;13.438;2022-11-15T06:40:35;7.60;72.40
71563;DHT22;59391;52.504;13.438;2022-11-15T06:43:03;7.60;72.30
71563;DHT22;59391;52.504;13.438;2022-11-15T06:45:30;7.60;72.20
71563;DHT22;59391;52.504;13.438;2022-11-15T06:47:56;7.60;72.10
71563;DHT22;59391;52.504;13.438;2022-11-15T06:50:23;7.60;72.00
71563;DHT22;59391;52.504;13.438;2022-11-15T06:52:48;7.60;72.30
71563;DHT22;59391;52.504;13.438;2022-11-15T06:55:14;7.60;72.40
71563;DHT22;59391;52.504;13.438;2022-11-15T06:57:48;7.60;72.50
71563;DHT22;59391;52.504;13.438;2022-11-15T07:00:44;7.60;72.50
71563;DHT22;59391;52.504;13.438;2022-11-15T07:03:09;7.60;72.60
71563;DHT22;59391;52.504;13.438;2022-11-15T07:05:35;7.70;72.40
71563;DHT22;59391;52.504;13.438;2022-11-15T07:08:01;7.70;72.10
71563;DHT22;59391;52.504;13.438;2022-11-15T07:10:28;7.70;72.10
71563;DHT22;59391;52.504;13.438;2022-11-15T07:12:55;7.70;72.20
71563;DHT22;59391;52.504;13.438;2022-11-15T07:15:23;7.70;72.30
71563;DHT22;59391;52.504;13.438;2022-11-15T07:17:50;7.80;72.30
71563;DHT22;59391;52.504;13.438;2022-11-15T07:20:17;7.80;72.30
71563;DHT22;59391;52.504;13.438;2022-11-15T07:22:43;7.80;72.30
71563;DHT22;59391;52.504;13.438;2022-11-15T07:25:12;7.90;72.40
71563;DHT22;59391;52.504;13.438;2022-11-15T07:27:38;8.00;72.40
71563;DHT22;59391;52.504;13.438;2022-11-15T07:30:04;8.00;72.30
71563;DHT22;59391;52.504;13.438;2022-11-15T07:32:30;8.10;72.10
71563;DHT22;59391;52.504;13.438;2022-11-15T07:34:56;8.20;72.00
71563;DHT22;59391;52.504;13.438;2022-11-15T07:37:22;8.30;71.80
71563;DHT22;59391;52.504;13.438;2022-11-15T07:39:48;8.40;71.70
71563;DHT22;59391;52.504;13.438;2022-11-15T07:42:13;8.60;71.40
71563;DHT22;59391;52.504;13.438;2022-11-15T07:45:05;8.70;71.00
71563;DHT22;59391;52.504;13.438;2022-11-15T07:47:31;8.80;70.90
71563;DHT22;59391;52.504;13.438;2022-11-15T07:49:57;8.90;70.40
71563;DHT22;59391;52.504;13.438;2022-11-15T07:52:22;9.00;70.10
71563;DHT22;59391;52.504;13.438;2022-11-15T07:54:48;9.10;69.80
71563;DHT22;59391;52.504;13.438;2022-11-15T07:57:13;9.10;69.20
71563;DHT22;59391;52.504;13.438;2022-11-15T07:59:39;9.10;69.30
71563;DHT22;59391;52.504;13.438;2022-11-15T08:02:05;9.20;69.20
71563;DHT22;59391;52.504;13.438;2022-11-15T08:04:30;9.20;68.90
71563;DHT22;59391;52.504;13.438;2022-11-15T08:06:56;9.30;69.20
71563;DHT22;59391;52.504;13.438;2022-11-15T08:09:22;9.30;69.10
71563;DHT22;59391;52.504;13.438;2022-11-15T08:11:48;9.40;68.80
71563;DHT22;59391;52.504;13.438;2022-11-15T08:14:13;9.40;68.60
71563;DHT22;59391;52.504;13.438;2022-11-15T08:16:39;9.40;68.60
71563;DHT22;59391;52.504;13.438;2022-11-15T08:19:07;9.50;68.50
71563;DHT22;59391;52.504;13.438;2022-11-15T08:21:33;9.50;68.30
71563;DHT22;59391;52.504;13.438;2022-11-15T08:23:58;9.60;68.20
71563;DHT22;59391;52.504;13.438;2022-11-15T08:26:24;9.60;68.10
71563;DHT22;59391;52.504;13.438;2022-11-15T08:28:52;9.70;68.00
71563;DHT22;59391;52.504;13.438;2022-11-15T08:31:18;9.70;68.00
71563;DHT22;59391;52.504;13.438;2022-11-15T08:33:44;9.80;68.10
71563;DHT22;59391;52.504;13.438;2022-11-15T08:36:15;9.90;67.90
71563;DHT22;59391;52.504;13.438;2022-11-15T08:38:42;10.00;67.60
71563;DHT22;59391;52.504;13.438;2022-11-15T08:41:17;10.10;67.40
71563;DHT22;59391;52.504;13.438;2022-11-15T08:43:49;10.10;67.40
71563;DHT22;59391;52.504;13.438;2022-11-15T08:46:15;10.20;67.20
71563;DHT22;59391;52.504;13.438;2022-11-15T08:48:41;10.30;67.00
71563;DHT22;59391;52.504;13.438;2022-11-15T08:51:06;10.40;67.20
71563;DHT22;59391;52.504;13.438;2022-11-15T08:53:33;10.60;67.10
71563;DHT22;59391;52.504;13.438;2022-11-15T08:55:58;10.70;66.50
71563;DHT22;59391;52.504;13.438;2022-11-15T08:58:24;10.80;66.00
71563;DHT22;59391;52.504;13.438;2022-11-15T09:00:51;11.00;65.60
71563;DHT22;59391;52.504;13.438;2022-11-15T09:03:16;11.10;65.40
71563;DHT22;59391;52.504;13.438;2022-11-15T09:05:42;11.20;64.90
71563;DHT22;59391;52.504;13.438;2022-11-15T09:08:08;11.40;64.70
71563;DHT22;59391;52.504;13.438;2022-11-15T09:10:36;11.40;64.80
71563;DHT22;59391;52.504;13.438;2022-11-15T09:13:02;11.60;64.40
71563;DHT22;59391;52.504;13.438;2022-11-15T09:15:27;11.70;64.10
71563;DHT22;59391;52.504;13.438;2022-11-15T09:17:53;11.90;63.80
71563;DHT22;59391;52.504;13.438;2022-11-15T09:20:19;12.10;64.00
71563;DHT22;59391;52.504;13.438;2022-11-15T09:22:44;12.30;63.50
71563;DHT22;59391;52.504;13.438;2022-11-15T09:25:10;12.50;62.80
71563;DHT22;59391;52.504;13.438;2022-11-15T09:27:35;12.70;62.40
71563;DHT22;59391;52.504;13.438;2022-11-15T09:30:01;13.00;61.50
71563;DHT22;59391;52.504;13.438;2022-11-15T09:32:30;13.30;61.00
71563;DHT22;59391;52.504;13.438;2022-11-15T09:34:57;13.60;60.50
71563;DHT22;59391;52.504;13.438;2022-11-15T09:37:23;14.00;60.10
71563;DHT22;59391;52.504;13.438;2022-11-15T09:39:48;14.40;58.80
71563;DHT22;59391;52.504;13.438;2022-11-15T09:42:57;14.80;58.00
71563;DHT22;59391;52.504;13.438;2022-11-15T09:45:42;15.20;56.20
71563;DHT22;59391;52.504;13.438;2022-11-15T09:48:45;15.70;55.40
71563;DHT22;59391;52.504;13.438;2022-11-15T09:51:30;16.20;54.70
71563;DHT22;59391;52.504;13.438;2022-11-15T09:54:04;16.60;52.20
71563;DHT22;59391;52.504;13.438;2022-11-15T09:56:32;17.10;51.70
71563;DHT22;59391;52.504;13.438;2022-11-15T10:02:09;17.80;50.10
71563;DHT22;59391;52.504;13.438;2022-11-15T10:04:59;18.20;49.20
71563;DHT22;59391;52.504;13.438;2022-11-15T10:07:33;18.50;47.10
71563;DHT22;59391;52.504;13.438;2022-11-15T10:10:17;18.70;46.50
71563;DHT22;59391;52.504;13.438;2022-11-15T10:12:55;19.00;45.80
71563;DHT22;59391;52.504;13.438;2022-11-15T10:15:21;19.20;44.60
71563;DHT22;59391;52.504;13.438;2022-11-15T10:18:15;19.40;45.00
71563;DHT22;59391;52.504;13.438;2022-11-15T10:23:28;19.90;43.90
71563;DHT22;59391;52.504;13.438;2022-11-15T10:25:57;20.20;42.30
71563;DHT22;59391;52.504;13.438;2022-11-15T10:28:30;20.40;41.50
71563;DHT22;59391;52.504;13.438;2022-11-15T10:30:58;20.60;41.60
71563;DHT22;59391;52.504;13.438;2022-11-15T10:33:33;20.80;40.80
71563;DHT22;59391;52.504;13.438;2022-11-15T10:41:15;21.20;39.60
71563;DHT22;59391;52.504;13.438;2022-11-15T10:46:34;20.80;40.40
71563;DHT22;59391;52.504;13.438;2022-11-15T10:49:15;20.50;40.50
71563;DHT22;59391;52.504;13.438;2022-11-15T10:51:57;20.10;41.10
71563;DHT22;59391;52.504;13.438;2022-11-15T10:54:42;19.80;41.60
71563;DHT22;59391;52.504;13.438;2022-11-15T10:57:32;19.40;42.00
71563;DHT22;59391;52.504;13.438;2022-11-15T11:03:01;18.60;43.50
71563;DHT22;59391;52.504;13.438;2022-11-15T11:05:38;18.30;44.30
71563;DHT22;59391;52.504;13.438;2022-11-15T11:10:36;17.80;45.40
71563;DHT22;59391;52.504;13.438;2022-11-15T11:13:28;17.60;45.70
71563;DHT22;59391;52.504;13.438;2022-11-15T11:16:36;17.40;46.30
71563;DHT22;59391;52.504;13.438;2022-11-15T11:25:47;17.20;47.80
71563;DHT22;59391;52.504;13.438;2022-11-15T11:32:06;17.90;47.30
71563;DHT22;59391;52.504;13.438;2022-11-15T11:35:08;18.50;46.50
71563;DHT22;59391;52.504;13.438;2022-11-15T11:37:50;18.90;45.70
71563;DHT22;59391;52.504;13.438;2022-11-15T11:48:37;20.90;41.80
71563;DHT22;59391;52.504;13.438;2022-11-15T11:51:23;21.20;40.60
71563;DHT22;59391;52.504;13.438;2022-11-15T11:54:20;21.50;40.30
71563;DHT22;59391;52.504;13.438;2022-11-15T11:57:12;21.80;39.90
71563;DHT22;59391;52.504;13.438;2022-11-15T12:00:01;22.30;39.50
71563;DHT22;59391;52.504;13.438;2022-11-15T12:02:35;22.80;38.60
71563;DHT22;59391;52.504;13.438;2022-11-15T12:05:22;23.20;38.20
71563;DHT22;59391;52.504;13.438;2022-11-15T12:08:47;23.50;38.30
71563;DHT22;59391;52.504;13.438;2022-11-15T12:11:29;23.80;36.80
71563;DHT22;59391;52.504;13.438;2022-11-15T12:17:23;24.60;35.90
71563;DHT22;59391;52.504;13.438;2022-11-15T12:19:52;24.90;35.40
71563;DHT22;59391;52.504;13.438;2022-11-15T12:22:36;25.10;35.00
71563;DHT22;59391;52.504;13.438;2022-11-15T12:25:18;25.30;34.70
71563;DHT22;59391;52.504;13.438;2022-11-15T12:36:32;25.60;34.20
71563;DHT22;59391;52.504;13.438;2022-11-15T12:39:13;25.60;33.80
71563;DHT22;59391;52.504;13.438;2022-11-15T12:41:42;25.50;34.00
71563;DHT22;59391;52.504;13.438;2022-11-15T13:17:50;23.50;36.70
71563;DHT22;59391;52.504;13.438;2022-11-15T13:20:26;23.40;36.80
71563;DHT22;59391;52.504;13.438;2022-11-15T13:23:06;23.40;36.80
71563;DHT22;59391;52.504;13.438;2022-11-15T13:25:52;23.40;36.70
71563;DHT22;59391;52.504;13.438;2022-11-15T13:31:29;23.20;37.00
71563;DHT22;59391;52.504;13.438;2022-11-15T13:34:14;23.10;37.20
71563;DHT22;59391;52.504;13.438;2022-11-15T13:36:51;22.90;37.40
71563;DHT22;59391;52.504;13.438;2022-11-15T13:39:32;22.90;37.60
71563;DHT22;59391;52.504;13.438;2022-11-15T13:42:00;22.70;37.70
71563;DHT22;59391;52.504;13.438;2022-11-15T13:44:29;22.60;37.90
71563;DHT22;59391;52.504;13.438;2022-11-15T13:47:13;22.50;37.90
71563;DHT22;59391;52.504;13.438;2022-11-15T13:49:40;22.40;38.20
71563;DHT22;59391;52.504;13.438;2022-11-15T13:52:14;22.20;38.50
71563;DHT22;59391;52.504;13.438;2022-11-15T13:55:01;22.10;38.70
71563;DHT22;59391;52.504;13.438;2022-11-15T13:57:44;22.10;39.00
71563;DHT22;59391;52.504;13.438;2022-11-15T14:00:26;22.10;39.00
71563;DHT22;59391;52.504;13.438;2022-11-15T14:03:10;22.10;39.00
71563;DHT22;59391;52.504;13.438;2022-11-15T14:05:41;22.10;38.90
71563;DHT22;59391;52.504;13.438;2022-11-15T14:08:23;22.00;39.20
71563;DHT22;59391;52.504;13.438;2022-11-15T14:11:06;21.80;39.40
71563;DHT22;59391;52.504;13.438;2022-11-15T14:13:42;21.70;39.40
71563;DHT22;59391;52.504;13.438;2022-11-15T14:16:34;21.60;39.70
71563;DHT22;59391;52.504;13.438;2022-11-15T14:19:11;21.30;40.10
71563;DHT22;59391;52.504;13.438;2022-11-15T14:22:13;21.10;40.40
71563;DHT22;59391;52.504;13.438;2022-11-15T14:25:18;20.90;40.80
71563;DHT22;59391;52.504;13.438;2022-11-15T14:28:16;20.70;41.20
71563;DHT22;59391;52.504;13.438;2022-11-15T14:30:57;20.40;41.50
71563;DHT22;59391;52.504;13.438;2022-11-15T14:33:28;20.20;41.90
71563;DHT22;59391;52.504;13.438;2022-11-15T14:36:03;20.00;42.30
71563;DHT22;59391;52.504;13.438;2022-11-15T14:38:29;19.70;42.60
71563;DHT22;59391;52.504;13.438;2022-11-15T14:40:54;19.50;43.20
71563;DHT22;59391;52.504;13.438;2022-11-15T14:43:21;19.20;43.60
71563;DHT22;59391;52.504;13.438;2022-11-15T14:45:47;19.00;44.20
71563;DHT22;59391;52.504;13.438;2022-11-15T14:48:13;18.70;44.80
71563;DHT22;59391;52.504;13.438;2022-11-15T14:50:39;18.40;45.40
71563;DHT22;59391;52.504;13.438;2022-11-15T14:53:05;18.20;46.20
71563;DHT22;59391;52.504;13.438;2022-11-15T14:55:33;17.90;46.80
71563;DHT22;59391;52.504;13.438;2022-11-15T14:58:04;17.80;47.20
71563;DHT22;59391;52.504;13.438;2022-11-15T15:00:34;17.50;47.80
71563;DHT22;59391;52.504;13.438;2022-11-15T15:03:01;17.30;48.50
71563;DHT22;59391;52.504;13.438;2022-11-15T15:05:41;17.10;49.00
71563;DHT22;59391;52.504;13.438;2022-11-15T15:08:08;16.90;49.70
71563;DHT22;59391;52.504;13.438;2022-11-15T15:10:37;16.80;50.10
71563;DHT22;59391;52.504;13.438;2022-11-15T15:13:05;16.60;50.30
71563;DHT22;59391;52.504;13.438;2022-11-15T15:15:33;16.50;50.70
71563;DHT22;59391;52.504;13.438;2022-11-15T15:18:01;16.40;51.10
71563;DHT22;59391;52.504;13.438;2022-11-15T15:20:27;16.30;51.70
71563;DHT22;59391;52.504;13.438;2022-11-15T15:22:54;16.10;51.80
71563;DHT22;59391;52.504;13.438;2022-11-15T15:25:22;16.00;51.90
71563;DHT22;59391;52.504;13.438;2022-11-15T15:27:52;15.90;52.50
71563;DHT22;59391;52.504;13.438;2022-11-15T15:30:19;15.80;53.00
71563;DHT22;59391;52.504;13.438;2022-11-15T15:32:45;15.70;53.00
71563;DHT22;59391;52.504;13.438;2022-11-15T15:35:15;15.60;53.50
71563;DHT22;59391;52.504;13.438;2022-11-15T15:37:43;15.50;53.70
71563;DHT22;59391;52.504;13.438;2022-11-15T15:40:20;15.40;54.10
71563;DHT22;59391;52.504;13.438;2022-11-15T15:42:48;15.30;54.50
71563;DHT22;59391;52.504;13.438;2022-11-15T15:45:15;15.30;54.60
71563;DHT22;59391;52.504;13.438;2022-11-15T15:47:41;15.20;55.00
71563;DHT22;59391;52.504;13.438;2022-11-15T15:50:32;15.10;55.40
71563;DHT22;59391;52.504;13.438;2022-11-15T15:53:00;15.00;55.60
71563;DHT22;59391;52.504;13.438;2022-11-15T15:55:28;15.00;55.80
71563;DHT22;59391;52.504;13.438;2022-11-15T15:57:54;14.90;56.00
71563;DHT22;59391;52.504;13.438;2022-11-15T16:00:21;14.80;56.00
71563;DHT22;59391;52.504;13.438;2022-11-15T16:02:50;14.80;56.50
71563;DHT22;59391;52.504;13.438;2022-11-15T16:05:16;14.70;56.70
71563;DHT22;59391;52.504;13.438;2022-11-15T16:07:43;14.70;56.60
71563;DHT22;59391;52.504;13.438;2022-11-15T16:10:31;14.60;57.00
71563;DHT22;59391;52.504;13.438;2022-11-15T16:13:02;14.60;57.30
71563;DHT22;59391;52.504;13.438;2022-11-15T16:15:30;14.50;57.30
71563;DHT22;59391;52.504;13.438;2022-11-15T16:17:58;14.50;57.80
71563;DHT22;59391;52.504;13.438;2022-11-15T16:23:13;14.40;58.50
71563;DHT22;59391;52.504;13.438;2022-11-15T16:25:44;14.30;58.40
71563;DHT22;59391;52.504;13.438;2022-11-15T16:30:45;14.20;58.90
71563;DHT22;59391;52.504;13.438;2022-11-15T16:33:11;14.10;59.00
71563;DHT22;59391;52.504;13.438;2022-11-15T16:35:36;14.00;59.40
71563;DHT22;59391;52.504;13.438;2022-11-15T16:38:02;14.00;59.60
71563;DHT22;59391;52.504;13.438;2022-11-15T16:40:30;13.90;59.70
71563;DHT22;59391;52.504;13.438;2022-11-15T16:42:58;13.90;59.80
71563;DHT22;59391;52.504;13.438;2022-11-15T16:45:25;13.80;60.30
71563;DHT22;59391;52.504;13.438;2022-11-15T16:47:53;13.70;60.50
71563;DHT22;59391;52.504;13.438;2022-11-15T16:50:25;13.60;60.70
71563;DHT22;59391;52.504;13.438;2022-11-15T16:52:54;13.60;61.00
71563;DHT22;59391;52.504;13.438;2022-11-15T16:55:23;13.50;61.20
71563;DHT22;59391;52.504;13.438;2022-11-15T16:57:51;13.40;61.30
71563;DHT22;59391;52.504;13.438;2022-11-15T17:00:18;13.30;61.50
71563;DHT22;59391;52.504;13.438;2022-11-15T17:02:45;13.30;61.60
71563;DHT22;59391;52.504;13.438;2022-11-15T17:05:13;13.20;62.10
71563;DHT22;59391;52.504;13.438;2022-11-15T17:07:40;13.10;62.10
71563;DHT22;59391;52.504;13.438;2022-11-15T17:10:10;13.10;62.50
71563;DHT22;59391;52.504;13.438;2022-11-15T17:12:36;13.00;62.80
71563;DHT22;59391;52.504;13.438;2022-11-15T17:15:03;12.90;63.00
71563;DHT22;59391;52.504;13.438;2022-11-15T17:17:30;12.80;63.00
71563;DHT22;59391;52.504;13.438;2022-11-15T17:19:56;12.80;63.10
71563;DHT22;59391;52.504;13.438;2022-11-15T17:22:22;12.70;63.20
71563;DHT22;59391;52.504;13.438;2022-11-15T17:24:48;12.60;63.20
71563;DHT22;59391;52.504;13.438;2022-11-15T17:27:14;12.50;63.40
71563;DHT22;59391;52.504;13.438;2022-11-15T17:29:41;12.50;63.60
71563;DHT22;59391;52.504;13.438;2022-11-15T17:32:07;12.40;63.80
71563;DHT22;59391;52.504;13.438;2022-11-15T17:34:33;12.30;64.10
71563;DHT22;59391;52.504;13.438;2022-11-15T17:36:59;12.20;64.30
71563;DHT22;59391;52.504;13.438;2022-11-15T17:39:25;12.10;64.70
71563;DHT22;59391;52.504;13.438;2022-11-15T17:41:50;12.00;64.80
71563;DHT22;59391;52.504;13.438;2022-11-15T17:44:16;11.90;65.10
71563;DHT22;59391;52.504;13.438;2022-11-15T17:46:42;11.90;65.30